sensor_id;sensor_type;location;lat;lon;timestamp;P1;durP1;ratioP1;P2;durP2;ratioP2
65853;SDS011;52627;48.838;2.402;2022-09-16T00:00:58;4.70;;;2.20;;
65853;SDS011;52627;48.838;2.402;2022-09-16T00:03:26;5.70;;;2.70;;
65853;SDS011;52627;48.838;2.402;2022-09-16T00:05:53;6.40;;;2.50;;
65853;SDS011;52627;48.838;2.402;2022-09-16T00:08:21;6.80;;;2.60;;
65853;SDS011;52627;48.838;2.402;2022-09-16T00:10:49;6.50;;;2.30;;
65853;SDS011;52627;48.838;2.402;2022-09-16T00:13:17;5.10;;;2.60;;
65853;SDS011;52627;48.838;2.402;2022-09-16T00:15:47;5.60;;;2.30;;
65853;SDS011;52627;48.838;2.402;2022-09-16T00:18:17;5.00;;;2.30;;
65853;SDS011;52627;48.838;2.402;2022-09-16T00:20:47;5.30;;;2.50;;
65853;SDS011;52627;48.838;2.402;2022-09-16T00:23:17;7.60;;;2.80;;
65853;SDS011;52627;48.838;2.402;2022-09-16T00:25:52;5.70;;;2.50;;
65853;SDS011;52627;48.838;2.402;2022-09-16T00:28:21;5.50;;;2.90;;
65853;SDS011;52627;48.838;2.402;2022-09-16T00:30:49;5.60;;;3.10;;
65853;SDS011;52627;48.838;2.402;2022-09-16T00:33:17;8.20;;;3.00;;
65853;SDS011;52627;48.838;2.402;2022-09-16T00:35:46;6.80;;;2.80;;
65853;SDS011;52627;48.838;2.402;2022-09-16T00:38:14;8.00;;;2.60;;
65853;SDS011;52627;48.838;2.402;2022-09-16T00:40:46;7.00;;;3.20;;
65853;SDS011;52627;48.838;2.402;2022-09-16T00:43:16;5.60;;;2.60;;
65853;SDS011;52627;48.838;2.402;2022-09-16T00:45:47;4.80;;;3.00;;
65853;SDS011;52627;48.838;2.402;2022-09-16T00:48:20;6.40;;;3.20;;
65853;SDS011;52627;48.838;2.402;2022-09-16T00:50:51;6.10;;;2.70;;
65853;SDS011;52627;48.838;2.402;2022-09-16T00:53:23;8.40;;;2.60;;
65853;SDS011;52627;48.838;2.402;2022-09-16T00:55:56;6.00;;;2.70;;
65853;SDS011;52627;48.838;2.402;2022-09-16T00:58:40;6.40;;;2.90;;
65853;SDS011;52627;48.838;2.402;2022-09-16T01:01:09;6.60;;;2.80;;
65853;SDS011;52627;48.838;2.402;2022-09-16T01:03:45;5.80;;;2.60;;
65853;SDS011;52627;48.838;2.402;2022-09-16T01:06:16;6.40;;;2.80;;
65853;SDS011;52627;48.838;2.402;2022-09-16T01:08:45;6.90;;;3.30;;
65853;SDS011;52627;48.838;2.402;2022-09-16T01:11:12;8.10;;;3.20;;
65853;SDS011;52627;48.838;2.402;2022-09-16T01:13:40;7.10;;;2.50;;
65853;SDS011;52627;48.838;2.402;2022-09-16T01:16:23;6.00;;;2.70;;
65853;SDS011;52627;48.838;2.402;2022-09-16T01:19:08;5.00;;;2.70;;
65853;SDS011;52627;48.838;2.402;2022-09-16T01:21:52;5.80;;;2.80;;
65853;SDS011;52627;48.838;2.402;2022-09-16T01:33:43;5.50;;;2.90;;
65853;SDS011;52627;48.838;2.402;2022-09-16T01:36:42;7.00;;;3.60;;
65853;SDS011;52627;48.838;2.402;2022-09-16T01:39:24;7.00;;;3.00;;
65853;SDS011;52627;48.838;2.402;2022-09-16T01:47:58;6.30;;;3.30;;
65853;SDS011;52627;48.838;2.402;2022-09-16T01:51:18;5.70;;;2.90;;
65853;SDS011;52627;48.838;2.402;2022-09-16T01:54:02;5.20;;;2.80;;
65853;SDS011;52627;48.838;2.402;2022-09-16T01:57:10;7.50;;;3.50;;
65853;SDS011;52627;48.838;2.402;2022-09-16T02:00:21;7.60;;;2.70;;
65853;SDS011;52627;48.838;2.402;2022-09-16T02:03:07;7.40;;;3.30;;
65853;SDS011;52627;48.838;2.402;2022-09-16T02:05:58;5.40;;;2.90;;
65853;SDS011;52627;48.838;2.402;2022-09-16T02:08:53;6.70;;;3.20;;
65853;SDS011;52627;48.838;2.402;2022-09-16T02:11:23;7.20;;;3.10;;
65853;SDS011;52627;48.838;2.402;2022-09-16T02:13:56;6.50;;;3.80;;
65853;SDS011;52627;48.838;2.402;2022-09-16T02:16:41;7.90;;;3.20;;
65853;SDS011;52627;48.838;2.402;2022-09-16T02:19:18;7.50;;;3.00;;
65853;SDS011;52627;48.838;2.402;2022-09-16T02:21:49;5.10;;;3.10;;
65853;SDS011;52627;48.838;2.402;2022-09-16T02:24:19;6.60;;;3.30;;
65853;SDS011;52627;48.838;2.402;2022-09-16T02:26:57;8.30;;;3.40;;
65853;SDS011;52627;48.838;2.402;2022-09-16T02:29:33;5.10;;;3.10;;
65853;SDS011;52627;48.838;2.402;2022-09-16T02:32:05;8.70;;;3.10;;
65853;SDS011;52627;48.838;2.402;2022-09-16T02:34:38;6.70;;;3.00;;
65853;SDS011;52627;48.838;2.402;2022-09-16T02:37:21;8.20;;;3.30;;
65853;SDS011;52627;48.838;2.402;2022-09-16T02:39:55;6.20;;;3.20;;
65853;SDS011;52627;48.838;2.402;2022-09-16T02:42:24;6.80;;;3.20;;
65853;SDS011;52627;48.838;2.402;2022-09-16T02:44:51;4.90;;;3.20;;
65853;SDS011;52627;48.838;2.402;2022-09-16T02:50:24;6.30;;;3.10;;
65853;SDS011;52627;48.838;2.402;2022-09-16T02:53:21;6.90;;;3.20;;
65853;SDS011;52627;48.838;2.402;2022-09-16T02:56:10;7.70;;;3.50;;
65853;SDS011;52627;48.838;2.402;2022-09-16T02:58:41;8.90;;;4.10;;
65853;SDS011;52627;48.838;2.402;2022-09-16T03:01:10;6.70;;;3.40;;
65853;SDS011;52627;48.838;2.402;2022-09-16T03:03:40;9.00;;;3.50;;
65853;SDS011;52627;48.838;2.402;2022-09-16T03:08:35;7.50;;;3.20;;
65853;SDS011;52627;48.838;2.402;2022-09-16T03:11:59;8.10;;;3.30;;
65853;SDS011;52627;48.838;2.402;2022-09-16T03:17:59;9.90;;;3.60;;
65853;SDS011;52627;48.838;2.402;2022-09-16T03:20:57;5.50;;;3.40;;
65853;SDS011;52627;48.838;2.402;2022-09-16T03:27:07;6.70;;;3.40;;
65853;SDS011;52627;48.838;2.402;2022-09-16T03:29:35;7.70;;;3.30;;
65853;SDS011;52627;48.838;2.402;2022-09-16T03:32:19;7.80;;;4.20;;
65853;SDS011;52627;48.838;2.402;2022-09-16T03:37:26;8.20;;;4.00;;
65853;SDS011;52627;48.838;2.402;2022-09-16T03:39:57;7.30;;;3.60;;
65853;SDS011;52627;48.838;2.402;2022-09-16T03:42:26;6.80;;;3.80;;
65853;SDS011;52627;48.838;2.402;2022-09-16T03:44:53;12.10;;;3.80;;
65853;SDS011;52627;48.838;2.402;2022-09-16T03:47:21;10.20;;;3.70;;
65853;SDS011;52627;48.838;2.402;2022-09-16T03:49:48;6.80;;;3.50;;
65853;SDS011;52627;48.838;2.402;2022-09-16T03:52:16;7.50;;;3.50;;
65853;SDS011;52627;48.838;2.402;2022-09-16T03:54:45;8.20;;;3.60;;
65853;SDS011;52627;48.838;2.402;2022-09-16T03:57:13;6.90;;;3.40;;
65853;SDS011;52627;48.838;2.402;2022-09-16T03:59:40;8.60;;;3.20;;
65853;SDS011;52627;48.838;2.402;2022-09-16T04:02:08;7.70;;;3.80;;
65853;SDS011;52627;48.838;2.402;2022-09-16T04:04:35;7.00;;;3.70;;
65853;SDS011;52627;48.838;2.402;2022-09-16T04:07:02;8.10;;;4.50;;
65853;SDS011;52627;48.838;2.402;2022-09-16T04:09:30;9.00;;;3.60;;
65853;SDS011;52627;48.838;2.402;2022-09-16T04:11:57;10.20;;;3.90;;
65853;SDS011;52627;48.838;2.402;2022-09-16T04:14:25;10.90;;;4.70;;
65853;SDS011;52627;48.838;2.402;2022-09-16T04:16:53;10.40;;;4.70;;
65853;SDS011;52627;48.838;2.402;2022-09-16T04:19:21;8.60;;;4.30;;
65853;SDS011;52627;48.838;2.402;2022-09-16T04:21:48;9.50;;;4.20;;
65853;SDS011;52627;48.838;2.402;2022-09-16T04:24:16;8.60;;;3.90;;
65853;SDS011;52627;48.838;2.402;2022-09-16T04:26:43;7.90;;;4.20;;
65853;SDS011;52627;48.838;2.402;2022-09-16T04:29:11;9.50;;;4.10;;
65853;SDS011;52627;48.838;2.402;2022-09-16T04:31:38;8.30;;;4.40;;
65853;SDS011;52627;48.838;2.402;2022-09-16T04:34:08;9.00;;;4.20;;
65853;SDS011;52627;48.838;2.402;2022-09-16T04:36:39;9.30;;;4.50;;
65853;SDS011;52627;48.838;2.402;2022-09-16T04:39:06;8.60;;;4.00;;
65853;SDS011;52627;48.838;2.402;2022-09-16T04:41:34;10.70;;;5.30;;
65853;SDS011;52627;48.838;2.402;2022-09-16T04:44:01;9.70;;;4.90;;
65853;SDS011;52627;48.838;2.402;2022-09-16T04:46:30;8.90;;;4.60;;
65853;SDS011;52627;48.838;2.402;2022-09-16T04:48:59;9.30;;;5.00;;
65853;SDS011;52627;48.838;2.402;2022-09-16T04:51:27;11.60;;;5.20;;
65853;SDS011;52627;48.838;2.402;2022-09-16T04:53:56;9.70;;;4.90;;
65853;SDS011;52627;48.838;2.402;2022-09-16T04:56:28;9.40;;;4.70;;
65853;SDS011;52627;48.838;2.402;2022-09-16T04:58:59;7.90;;;4.50;;
65853;SDS011;52627;48.838;2.402;2022-09-16T05:01:31;8.90;;;4.80;;
65853;SDS011;52627;48.838;2.402;2022-09-16T05:04:03;11.60;;;4.70;;
65853;SDS011;52627;48.838;2.402;2022-09-16T05:06:37;8.90;;;4.70;;
65853;SDS011;52627;48.838;2.402;2022-09-16T05:09:06;10.90;;;5.10;;
65853;SDS011;52627;48.838;2.402;2022-09-16T05:11:37;9.10;;;4.50;;
65853;SDS011;52627;48.838;2.402;2022-09-16T05:14:09;10.70;;;4.50;;
65853;SDS011;52627;48.838;2.402;2022-09-16T05:16:38;10.60;;;4.60;;
65853;SDS011;52627;48.838;2.402;2022-09-16T05:19:06;8.80;;;4.50;;
65853;SDS011;52627;48.838;2.402;2022-09-16T05:21:35;8.00;;;4.70;;
65853;SDS011;52627;48.838;2.402;2022-09-16T05:24:06;10.20;;;4.80;;
65853;SDS011;52627;48.838;2.402;2022-09-16T05:26:37;11.10;;;4.80;;
65853;SDS011;52627;48.838;2.402;2022-09-16T05:29:10;7.90;;;5.00;;
65853;SDS011;52627;48.838;2.402;2022-09-16T05:31:41;10.80;;;4.40;;
65853;SDS011;52627;48.838;2.402;2022-09-16T05:34:15;10.80;;;4.80;;
65853;SDS011;52627;48.838;2.402;2022-09-16T05:36:44;8.50;;;4.80;;
65853;SDS011;52627;48.838;2.402;2022-09-16T05:39:15;11.70;;;4.90;;
65853;SDS011;52627;48.838;2.402;2022-09-16T05:41:57;12.70;;;5.30;;
65853;SDS011;52627;48.838;2.402;2022-09-16T05:44:26;11.50;;;5.20;;
65853;SDS011;52627;48.838;2.402;2022-09-16T05:46:54;8.60;;;4.70;;
65853;SDS011;52627;48.838;2.402;2022-09-16T05:49:22;9.90;;;5.10;;
65853;SDS011;52627;48.838;2.402;2022-09-16T05:51:50;7.70;;;4.70;;
65853;SDS011;52627;48.838;2.402;2022-09-16T05:54:19;10.10;;;4.30;;
65853;SDS011;52627;48.838;2.402;2022-09-16T05:56:47;9.50;;;4.80;;
65853;SDS011;52627;48.838;2.402;2022-09-16T05:59:15;10.50;;;5.00;;
65853;SDS011;52627;48.838;2.402;2022-09-16T06:01:43;11.70;;;5.90;;
65853;SDS011;52627;48.838;2.402;2022-09-16T06:04:12;11.80;;;5.30;;
65853;SDS011;52627;48.838;2.402;2022-09-16T06:06:45;12.50;;;5.90;;
65853;SDS011;52627;48.838;2.402;2022-09-16T06:09:19;11.00;;;5.50;;
65853;SDS011;52627;48.838;2.402;2022-09-16T06:11:49;12.40;;;5.40;;
65853;SDS011;52627;48.838;2.402;2022-09-16T06:14:21;14.40;;;6.10;;
65853;SDS011;52627;48.838;2.402;2022-09-16T06:16:49;10.30;;;5.20;;
65853;SDS011;52627;48.838;2.402;2022-09-16T06:19:17;11.00;;;5.50;;
65853;SDS011;52627;48.838;2.402;2022-09-16T06:21:45;9.40;;;5.30;;
65853;SDS011;52627;48.838;2.402;2022-09-16T06:24:15;11.90;;;5.50;;
65853;SDS011;52627;48.838;2.402;2022-09-16T06:26:44;12.30;;;5.50;;
65853;SDS011;52627;48.838;2.402;2022-09-16T06:29:13;11.60;;;5.20;;
65853;SDS011;52627;48.838;2.402;2022-09-16T06:31:41;12.20;;;5.70;;
65853;SDS011;52627;48.838;2.402;2022-09-16T06:34:13;10.10;;;5.10;;
65853;SDS011;52627;48.838;2.402;2022-09-16T06:36:42;9.90;;;6.00;;
65853;SDS011;52627;48.838;2.402;2022-09-16T06:39:13;12.80;;;5.50;;
65853;SDS011;52627;48.838;2.402;2022-09-16T06:41:41;11.80;;;6.30;;
65853;SDS011;52627;48.838;2.402;2022-09-16T06:44:09;10.50;;;5.20;;
65853;SDS011;52627;48.838;2.402;2022-09-16T06:46:36;11.30;;;5.60;;
65853;SDS011;52627;48.838;2.402;2022-09-16T06:49:04;9.60;;;4.90;;
65853;SDS011;52627;48.838;2.402;2022-09-16T06:51:33;11.00;;;4.80;;
65853;SDS011;52627;48.838;2.402;2022-09-16T06:54:06;10.60;;;5.30;;
65853;SDS011;52627;48.838;2.402;2022-09-16T06:56:35;11.00;;;5.30;;
65853;SDS011;52627;48.838;2.402;2022-09-16T06:59:04;14.30;;;5.30;;
65853;SDS011;52627;48.838;2.402;2022-09-16T07:01:32;9.10;;;4.30;;
65853;SDS011;52627;48.838;2.402;2022-09-16T07:04:05;7.20;;;4.10;;
65853;SDS011;52627;48.838;2.402;2022-09-16T07:06:37;9.90;;;4.90;;
65853;SDS011;52627;48.838;2.402;2022-09-16T07:09:24;8.10;;;4.30;;
65853;SDS011;52627;48.838;2.402;2022-09-16T07:11:52;9.60;;;5.00;;
65853;SDS011;52627;48.838;2.402;2022-09-16T07:14:19;10.80;;;4.90;;
65853;SDS011;52627;48.838;2.402;2022-09-16T07:16:48;9.90;;;4.60;;
65853;SDS011;52627;48.838;2.402;2022-09-16T07:19:15;10.90;;;5.10;;
65853;SDS011;52627;48.838;2.402;2022-09-16T07:21:43;9.80;;;4.70;;
65853;SDS011;52627;48.838;2.402;2022-09-16T07:24:12;9.90;;;4.50;;
65853;SDS011;52627;48.838;2.402;2022-09-16T07:26:40;9.30;;;4.80;;
65853;SDS011;52627;48.838;2.402;2022-09-16T07:29:16;10.90;;;5.10;;
65853;SDS011;52627;48.838;2.402;2022-09-16T07:31:44;9.50;;;4.70;;
65853;SDS011;52627;48.838;2.402;2022-09-16T07:34:11;11.30;;;5.50;;
65853;SDS011;52627;48.838;2.402;2022-09-16T07:36:42;7.80;;;4.50;;
65853;SDS011;52627;48.838;2.402;2022-09-16T07:39:13;7.60;;;4.80;;
65853;SDS011;52627;48.838;2.402;2022-09-16T07:41:42;10.80;;;4.90;;
65853;SDS011;52627;48.838;2.402;2022-09-16T07:44:12;8.10;;;4.70;;
65853;SDS011;52627;48.838;2.402;2022-09-16T07:46:41;10.70;;;4.60;;
65853;SDS011;52627;48.838;2.402;2022-09-16T07:49:12;10.30;;;4.80;;
65853;SDS011;52627;48.838;2.402;2022-09-16T07:51:40;9.90;;;5.30;;
65853;SDS011;52627;48.838;2.402;2022-09-16T07:54:11;9.60;;;4.40;;
65853;SDS011;52627;48.838;2.402;2022-09-16T07:56:41;10.00;;;5.50;;
65853;SDS011;52627;48.838;2.402;2022-09-16T07:59:15;12.50;;;4.20;;
65853;SDS011;52627;48.838;2.402;2022-09-16T08:01:46;11.10;;;4.90;;
65853;SDS011;52627;48.838;2.402;2022-09-16T08:04:16;7.70;;;3.40;;
65853;SDS011;52627;48.838;2.402;2022-09-16T08:06:44;12.30;;;4.20;;
65853;SDS011;52627;48.838;2.402;2022-09-16T08:09:12;11.00;;;3.50;;
65853;SDS011;52627;48.838;2.402;2022-09-16T08:12:02;7.90;;;3.90;;
65853;SDS011;52627;48.838;2.402;2022-09-16T08:14:31;7.20;;;3.30;;
65853;SDS011;52627;48.838;2.402;2022-09-16T08:16:59;6.60;;;4.00;;
65853;SDS011;52627;48.838;2.402;2022-09-16T08:19:28;9.80;;;3.50;;
65853;SDS011;52627;48.838;2.402;2022-09-16T08:21:55;9.00;;;3.50;;
65853;SDS011;52627;48.838;2.402;2022-09-16T08:24:23;6.30;;;2.70;;
65853;SDS011;52627;48.838;2.402;2022-09-16T08:26:50;7.70;;;2.60;;
65853;SDS011;52627;48.838;2.402;2022-09-16T08:29:18;8.40;;;2.90;;
65853;SDS011;52627;48.838;2.402;2022-09-16T08:31:45;10.50;;;2.80;;
65853;SDS011;52627;48.838;2.402;2022-09-16T08:34:12;8.70;;;3.00;;
65853;SDS011;52627;48.838;2.402;2022-09-16T08:36:40;7.60;;;2.80;;
65853;SDS011;52627;48.838;2.402;2022-09-16T08:39:08;7.00;;;2.50;;
65853;SDS011;52627;48.838;2.402;2022-09-16T08:42:08;9.40;;;3.30;;
65853;SDS011;52627;48.838;2.402;2022-09-16T08:50:40;8.70;;;2.50;;
65853;SDS011;52627;48.838;2.402;2022-09-16T08:56:03;6.30;;;2.80;;
65853;SDS011;52627;48.838;2.402;2022-09-16T08:58:39;9.00;;;3.10;;
65853;SDS011;52627;48.838;2.402;2022-09-16T09:01:35;4.90;;;2.20;;
65853;SDS011;52627;48.838;2.402;2022-09-16T09:04:06;8.00;;;2.40;;
65853;SDS011;52627;48.838;2.402;2022-09-16T09:10:02;5.20;;;1.80;;
65853;SDS011;52627;48.838;2.402;2022-09-16T09:12:46;8.80;;;2.30;;
65853;SDS011;52627;48.838;2.402;2022-09-16T09:21:06;7.40;;;2.30;;
65853;SDS011;52627;48.838;2.402;2022-09-16T09:26:58;7.60;;;2.30;;
65853;SDS011;52627;48.838;2.402;2022-09-16T09:42:18;7.00;;;1.80;;
65853;SDS011;52627;48.838;2.402;2022-09-16T09:44:58;6.80;;;1.80;;
65853;SDS011;52627;48.838;2.402;2022-09-16T09:50:36;6.10;;;1.60;;
65853;SDS011;52627;48.838;2.402;2022-09-16T09:55:40;7.00;;;1.90;;
65853;SDS011;52627;48.838;2.402;2022-09-16T09:58:31;6.40;;;1.50;;
65853;SDS011;52627;48.838;2.402;2022-09-16T10:01:08;5.20;;;1.70;;
65853;SDS011;52627;48.838;2.402;2022-09-16T10:03:35;3.60;;;1.60;;
65853;SDS011;52627;48.838;2.402;2022-09-16T10:06:05;4.40;;;1.60;;
65853;SDS011;52627;48.838;2.402;2022-09-16T10:08:43;4.20;;;1.70;;
65853;SDS011;52627;48.838;2.402;2022-09-16T10:13:50;2.80;;;1.30;;
65853;SDS011;52627;48.838;2.402;2022-09-16T10:16:21;4.60;;;1.30;;
65853;SDS011;52627;48.838;2.402;2022-09-16T10:18:57;4.40;;;1.40;;
65853;SDS011;52627;48.838;2.402;2022-09-16T10:21:46;6.80;;;1.30;;
65853;SDS011;52627;48.838;2.402;2022-09-16T10:24:36;3.90;;;1.40;;
65853;SDS011;52627;48.838;2.402;2022-09-16T10:30:13;4.50;;;1.40;;
65853;SDS011;52627;48.838;2.402;2022-09-16T10:33:01;4.70;;;1.30;;
65853;SDS011;52627;48.838;2.402;2022-09-16T10:35:36;3.50;;;1.30;;
65853;SDS011;52627;48.838;2.402;2022-09-16T10:40:36;2.80;;;1.20;;
65853;SDS011;52627;48.838;2.402;2022-09-16T10:43:13;3.40;;;1.30;;
65853;SDS011;52627;48.838;2.402;2022-09-16T10:45:46;3.20;;;1.20;;
65853;SDS011;52627;48.838;2.402;2022-09-16T10:48:18;4.40;;;1.60;;
65853;SDS011;52627;48.838;2.402;2022-09-16T10:50:57;4.10;;;1.60;;
65853;SDS011;52627;48.838;2.402;2022-09-16T10:53:33;3.80;;;1.30;;
65853;SDS011;52627;48.838;2.402;2022-09-16T10:56:20;4.20;;;1.20;;
65853;SDS011;52627;48.838;2.402;2022-09-16T11:02:05;4.20;;;1.30;;
65853;SDS011;52627;48.838;2.402;2022-09-16T11:08:33;5.50;;;1.40;;
65853;SDS011;52627;48.838;2.402;2022-09-16T11:10:55;5.40;;;1.50;;
65853;SDS011;52627;48.838;2.402;2022-09-16T11:22:38;4.50;;;1.40;;
65853;SDS011;52627;48.838;2.402;2022-09-16T11:38:04;6.30;;;1.50;;
65853;SDS011;52627;48.838;2.402;2022-09-16T11:40:47;3.40;;;1.30;;
65853;SDS011;52627;48.838;2.402;2022-09-16T11:58:36;4.40;;;1.20;;
65853;SDS011;52627;48.838;2.402;2022-09-16T12:01:34;6.80;;;1.20;;
65853;SDS011;52627;48.838;2.402;2022-09-16T12:04:10;4.20;;;1.60;;
65853;SDS011;52627;48.838;2.402;2022-09-16T12:12:27;4.70;;;1.00;;
65853;SDS011;52627;48.838;2.402;2022-09-16T12:15:02;5.50;;;1.20;;
65853;SDS011;52627;48.838;2.402;2022-09-16T12:17:36;6.40;;;1.40;;
65853;SDS011;52627;48.838;2.402;2022-09-16T12:20:13;4.00;;;1.00;;
65853;SDS011;52627;48.838;2.402;2022-09-16T12:22:47;4.80;;;1.10;;
65853;SDS011;52627;48.838;2.402;2022-09-16T12:25:25;5.10;;;1.70;;
65853;SDS011;52627;48.838;2.402;2022-09-16T12:30:49;3.50;;;1.10;;
65853;SDS011;52627;48.838;2.402;2022-09-16T12:33:30;2.80;;;1.10;;
65853;SDS011;52627;48.838;2.402;2022-09-16T12:36:18;4.50;;;1.40;;
65853;SDS011;52627;48.838;2.402;2022-09-16T12:38:50;4.40;;;1.20;;
65853;SDS011;52627;48.838;2.402;2022-09-16T12:41:35;3.70;;;1.30;;
65853;SDS011;52627;48.838;2.402;2022-09-16T12:53:28;5.50;;;1.30;;
65853;SDS011;52627;48.838;2.402;2022-09-16T13:01:43;6.00;;;1.40;;
65853;SDS011;52627;48.838;2.402;2022-09-16T13:04:27;4.30;;;1.20;;
65853;SDS011;52627;48.838;2.402;2022-09-16T13:06:59;6.70;;;1.60;;
65853;SDS011;52627;48.838;2.402;2022-09-16T13:09:30;4.10;;;1.20;;
65853;SDS011;52627;48.838;2.402;2022-09-16T13:12:05;4.80;;;1.20;;
65853;SDS011;52627;48.838;2.402;2022-09-16T13:15:03;3.80;;;1.30;;
65853;SDS011;52627;48.838;2.402;2022-09-16T13:17:38;4.90;;;1.30;;
65853;SDS011;52627;48.838;2.402;2022-09-16T13:20:20;4.70;;;1.30;;
65853;SDS011;52627;48.838;2.402;2022-09-16T13:23:22;3.90;;;1.30;;
65853;SDS011;52627;48.838;2.402;2022-09-16T13:28:36;7.30;;;2.10;;
65853;SDS011;52627;48.838;2.402;2022-09-16T13:33:45;5.80;;;1.50;;
65853;SDS011;52627;48.838;2.402;2022-09-16T13:46:55;5.60;;;1.50;;
65853;SDS011;52627;48.838;2.402;2022-09-16T13:49:52;4.80;;;1.70;;
65853;SDS011;52627;48.838;2.402;2022-09-16T13:52:35;4.70;;;1.30;;
65853;SDS011;52627;48.838;2.402;2022-09-16T13:55:05;4.30;;;1.80;;
65853;SDS011;52627;48.838;2.402;2022-09-16T14:00:36;3.50;;;1.30;;
65853;SDS011;52627;48.838;2.402;2022-09-16T14:03:15;5.40;;;1.30;;
65853;SDS011;52627;48.838;2.402;2022-09-16T14:09:26;3.30;;;1.10;;
65853;SDS011;52627;48.838;2.402;2022-09-16T14:15:06;4.60;;;1.10;;
65853;SDS011;52627;48.838;2.402;2022-09-16T14:17:40;5.30;;;1.60;;
65853;SDS011;52627;48.838;2.402;2022-09-16T14:20:16;4.40;;;1.50;;
65853;SDS011;52627;48.838;2.402;2022-09-16T14:22:46;5.80;;;1.40;;
65853;SDS011;52627;48.838;2.402;2022-09-16T14:25:33;5.80;;;1.30;;
65853;SDS011;52627;48.838;2.402;2022-09-16T14:28:25;3.80;;;1.10;;
65853;SDS011;52627;48.838;2.402;2022-09-16T14:30:56;5.70;;;1.30;;
65853;SDS011;52627;48.838;2.402;2022-09-16T14:33:35;5.20;;;1.40;;
65853;SDS011;52627;48.838;2.402;2022-09-16T14:36:30;6.50;;;1.20;;
65853;SDS011;52627;48.838;2.402;2022-09-16T14:39:12;2.50;;;1.20;;
65853;SDS011;52627;48.838;2.402;2022-09-16T14:44:45;3.60;;;1.20;;
65853;SDS011;52627;48.838;2.402;2022-09-16T14:47:16;3.30;;;1.30;;
65853;SDS011;52627;48.838;2.402;2022-09-16T14:50:32;3.80;;;1.30;;
65853;SDS011;52627;48.838;2.402;2022-09-16T14:53:05;4.20;;;1.00;;
65853;SDS011;52627;48.838;2.402;2022-09-16T14:55:48;3.90;;;1.20;;
65853;SDS011;52627;48.838;2.402;2022-09-16T14:58:16;3.40;;;1.10;;
65853;SDS011;52627;48.838;2.402;2022-09-16T15:00:49;3.80;;;1.20;;
65853;SDS011;52627;48.838;2.402;2022-09-16T15:06:22;6.20;;;1.40;;
65853;SDS011;52627;48.838;2.402;2022-09-16T15:08:56;3.20;;;1.00;;
65853;SDS011;52627;48.838;2.402;2022-09-16T15:11:35;3.70;;;1.50;;
65853;SDS011;52627;48.838;2.402;2022-09-16T15:14:16;5.30;;;1.30;;
65853;SDS011;52627;48.838;2.402;2022-09-16T15:16:46;3.40;;;1.00;;
65853;SDS011;52627;48.838;2.402;2022-09-16T15:19:20;2.60;;;1.00;;
65853;SDS011;52627;48.838;2.402;2022-09-16T15:21:50;4.20;;;1.30;;
65853;SDS011;52627;48.838;2.402;2022-09-16T15:24:23;4.70;;;1.10;;
65853;SDS011;52627;48.838;2.402;2022-09-16T15:26:54;3.90;;;1.20;;
65853;SDS011;52627;48.838;2.402;2022-09-16T15:31:50;3.60;;;1.30;;
65853;SDS011;52627;48.838;2.402;2022-09-16T15:36:49;3.40;;;1.20;;
65853;SDS011;52627;48.838;2.402;2022-09-16T15:39:31;3.30;;;1.00;;
65853;SDS011;52627;48.838;2.402;2022-09-16T15:44:56;3.90;;;1.10;;
65853;SDS011;52627;48.838;2.402;2022-09-16T15:47:31;5.30;;;1.20;;
65853;SDS011;52627;48.838;2.402;2022-09-16T15:50:10;3.40;;;1.10;;
65853;SDS011;52627;48.838;2.402;2022-09-16T15:53:05;3.70;;;1.10;;
65853;SDS011;52627;48.838;2.402;2022-09-16T15:55:59;4.20;;;0.90;;
65853;SDS011;52627;48.838;2.402;2022-09-16T15:58:38;4.70;;;1.40;;
65853;SDS011;52627;48.838;2.402;2022-09-16T16:04:06;4.50;;;1.30;;
65853;SDS011;52627;48.838;2.402;2022-09-16T16:11:58;2.50;;;0.90;;
65853;SDS011;52627;48.838;2.402;2022-09-16T16:14:30;4.00;;;1.20;;
65853;SDS011;52627;48.838;2.402;2022-09-16T16:17:24;4.40;;;1.40;;
65853;SDS011;52627;48.838;2.402;2022-09-16T16:19:53;5.10;;;1.70;;
65853;SDS011;52627;48.838;2.402;2022-09-16T16:22:22;2.90;;;1.20;;
65853;SDS011;52627;48.838;2.402;2022-09-16T16:24:50;5.90;;;1.30;;
65853;SDS011;52627;48.838;2.402;2022-09-16T16:27:18;4.30;;;1.50;;
65853;SDS011;52627;48.838;2.402;2022-09-16T16:29:46;3.70;;;1.20;;
65853;SDS011;52627;48.838;2.402;2022-09-16T16:32:15;4.30;;;1.70;;
65853;SDS011;52627;48.838;2.402;2022-09-16T16:34:44;5.10;;;1.50;;
65853;SDS011;52627;48.838;2.402;2022-09-16T16:37:13;3.80;;;1.20;;
65853;SDS011;52627;48.838;2.402;2022-09-16T16:40:04;3.50;;;0.90;;
65853;SDS011;52627;48.838;2.402;2022-09-16T16:42:32;2.10;;;1.00;;
65853;SDS011;52627;48.838;2.402;2022-09-16T16:45:00;3.30;;;1.10;;
65853;SDS011;52627;48.838;2.402;2022-09-16T16:47:28;2.30;;;0.80;;
65853;SDS011;52627;48.838;2.402;2022-09-16T16:49:55;3.60;;;0.90;;
65853;SDS011;52627;48.838;2.402;2022-09-16T16:52:24;4.00;;;1.00;;
65853;SDS011;52627;48.838;2.402;2022-09-16T16:54:51;3.40;;;1.10;;
65853;SDS011;52627;48.838;2.402;2022-09-16T16:57:19;4.40;;;1.10;;
65853;SDS011;52627;48.838;2.402;2022-09-16T16:59:46;4.60;;;1.20;;
65853;SDS011;52627;48.838;2.402;2022-09-16T17:02:13;3.80;;;2.00;;
65853;SDS011;52627;48.838;2.402;2022-09-16T17:04:41;3.80;;;1.00;;
65853;SDS011;52627;48.838;2.402;2022-09-16T17:07:09;4.40;;;1.50;;
65853;SDS011;52627;48.838;2.402;2022-09-16T17:09:54;2.70;;;1.00;;
65853;SDS011;52627;48.838;2.402;2022-09-16T17:12:24;3.40;;;1.50;;
65853;SDS011;52627;48.838;2.402;2022-09-16T17:14:51;2.80;;;1.10;;
65853;SDS011;52627;48.838;2.402;2022-09-16T17:17:19;3.10;;;1.10;;
65853;SDS011;52627;48.838;2.402;2022-09-16T17:19:46;2.10;;;0.90;;
65853;SDS011;52627;48.838;2.402;2022-09-16T17:22:14;3.70;;;1.90;;
65853;SDS011;52627;48.838;2.402;2022-09-16T17:24:42;3.20;;;1.10;;
65853;SDS011;52627;48.838;2.402;2022-09-16T17:27:09;3.30;;;1.20;;
65853;SDS011;52627;48.838;2.402;2022-09-16T17:29:36;2.60;;;1.00;;
65853;SDS011;52627;48.838;2.402;2022-09-16T17:32:04;3.40;;;0.90;;
65853;SDS011;52627;48.838;2.402;2022-09-16T17:34:32;4.80;;;1.10;;
65853;SDS011;52627;48.838;2.402;2022-09-16T17:37:00;4.20;;;1.10;;
65853;SDS011;52627;48.838;2.402;2022-09-16T17:39:29;3.80;;;1.50;;
65853;SDS011;52627;48.838;2.402;2022-09-16T17:41:56;5.60;;;2.50;;
65853;SDS011;52627;48.838;2.402;2022-09-16T17:44:24;3.60;;;1.60;;
65853;SDS011;52627;48.838;2.402;2022-09-16T17:46:51;6.10;;;1.50;;
65853;SDS011;52627;48.838;2.402;2022-09-16T17:49:21;5.00;;;1.20;;
65853;SDS011;52627;48.838;2.402;2022-09-16T17:51:50;5.00;;;1.10;;
65853;SDS011;52627;48.838;2.402;2022-09-16T17:54:20;4.80;;;1.40;;
65853;SDS011;52627;48.838;2.402;2022-09-16T17:56:48;6.70;;;1.20;;
65853;SDS011;52627;48.838;2.402;2022-09-16T17:59:17;4.20;;;1.20;;
65853;SDS011;52627;48.838;2.402;2022-09-16T18:01:45;2.90;;;1.00;;
65853;SDS011;52627;48.838;2.402;2022-09-16T18:04:12;4.10;;;1.20;;
65853;SDS011;52627;48.838;2.402;2022-09-16T18:06:43;3.40;;;1.10;;
65853;SDS011;52627;48.838;2.402;2022-09-16T18:09:12;3.90;;;1.00;;
65853;SDS011;52627;48.838;2.402;2022-09-16T18:11:40;4.40;;;1.30;;
65853;SDS011;52627;48.838;2.402;2022-09-16T18:14:10;4.30;;;1.10;;
65853;SDS011;52627;48.838;2.402;2022-09-16T18:16:38;2.80;;;1.00;;
65853;SDS011;52627;48.838;2.402;2022-09-16T18:19:07;2.60;;;0.90;;
65853;SDS011;52627;48.838;2.402;2022-09-16T18:21:34;2.80;;;1.20;;
65853;SDS011;52627;48.838;2.402;2022-09-16T18:24:05;3.40;;;1.20;;
65853;SDS011;52627;48.838;2.402;2022-09-16T18:26:38;3.80;;;1.80;;
65853;SDS011;52627;48.838;2.402;2022-09-16T18:29:12;4.00;;;1.20;;
65853;SDS011;52627;48.838;2.402;2022-09-16T18:31:42;2.00;;;1.00;;
65853;SDS011;52627;48.838;2.402;2022-09-16T18:34:11;4.80;;;1.30;;
65853;SDS011;52627;48.838;2.402;2022-09-16T18:36:39;2.50;;;1.00;;